VEAT/IXA METAR and TAF weather

Enter ICAO airport designator
Station Type Date Time Source
VEAT METAR 2019/10/22 13:30 UTC NOAA

VEAT 221330Z 00000KT 2500 BR FEW020 SCT100 28/26 Q1009 NOSIG


Station Type Date Time Source
VEAT Decoded METAR 2019/10/22 13:30 UTC NOAA

Agartala, India (VEAT) 23-53N 091-15E 16M
Oct 22, 2019 - 09:30 AM EDT / 2019.10.22 1330 UTC
Wind: Calm:0
Visibility: 1 mile(s):0
Sky conditions: partly cloudy
Weather: mist
Temperature: 82 F (28 C)
Dew Point: 78 F (26 C)
Relative Humidity: 88%
Pressure (altimeter): 29.80 in. Hg (1009 hPa)
ob: VEAT 221330Z 00000KT 2500 BR FEW020 SCT100 28/26 Q1009 NOSIG
cycle: 13

Station Type Date Time Source
VEAT TAF 2013/07/19 12:00 UTC NOAA

TAF VEAT 190900Z 1912/1921 16008KT 5000 HZ SCT018 FEW030CB BKN100
TEMPO 1912/1921 3000 -TSRA SCT015 FEW025CB OVC090

Example: see airport list